createdAt,value
2019-02-07T00:00:16.078Z,1013.65
2019-02-07T00:01:16.061Z,1013.60
2019-02-07T00:02:16.058Z,1013.63
2019-02-07T00:03:16.041Z,1013.63
2019-02-07T00:04:16.030Z,1013.61
2019-02-07T00:05:16.023Z,1013.57
2019-02-07T00:06:16.010Z,1013.57
2019-02-07T00:07:15.998Z,1013.59
2019-02-07T00:08:15.988Z,1013.57
2019-02-07T00:09:15.974Z,1013.55
2019-02-07T00:10:15.965Z,1013.53
2019-02-07T00:11:15.954Z,1013.53
2019-02-07T00:12:15.940Z,1013.52
2019-02-07T00:13:15.930Z,1013.54
2019-02-07T00:14:39.887Z,1013.54
2019-02-07T00:15:58.472Z,1013.52
2019-02-07T00:17:16.587Z,1013.52
2019-02-07T00:20:28.063Z,1013.46
2019-02-07T00:22:35.367Z,1013.39
2019-02-07T00:25:02.800Z,1013.41
2019-02-07T00:27:30.745Z,1013.39
2019-02-07T00:29:59.684Z,1013.35
2019-02-07T00:31:19.307Z,1013.37
2019-02-07T00:34:20.899Z,1013.13
2019-02-07T00:37:08.971Z,1013.14
2019-02-07T00:37:48.323Z,1013.22
2019-02-07T00:39:07.476Z,1013.17
2019-02-07T00:40:29.854Z,1013.16
2019-02-07T00:41:29.839Z,1013.21
2019-02-07T00:43:11.889Z,1013.20
2019-02-07T00:44:11.860Z,1013.17
2019-02-07T00:45:11.849Z,1013.16
2019-02-07T00:46:11.838Z,1013.14
2019-02-07T00:47:11.830Z,1013.13
2019-02-07T00:48:11.822Z,1013.15
2019-02-07T00:49:11.805Z,1013.14
2019-02-07T00:50:11.795Z,1013.13
2019-02-07T00:51:11.784Z,1013.19
2019-02-07T00:52:11.771Z,1013.09
2019-02-07T00:53:11.761Z,1013.10
2019-02-07T00:54:11.752Z,1013.08
2019-02-07T00:55:11.737Z,1013.06
2019-02-07T00:56:11.727Z,1013.07
2019-02-07T00:57:11.716Z,1013.09
2019-02-07T00:58:11.708Z,1013.10
2019-02-07T00:59:11.697Z,1013.10
2019-02-07T01:00:11.683Z,1013.10
2019-02-07T01:01:11.679Z,1013.11
2019-02-07T01:02:11.659Z,1013.11
2019-02-07T01:03:11.650Z,1013.05
2019-02-07T01:04:11.637Z,1013.04
2019-02-07T01:05:11.627Z,1013.04
2019-02-07T01:06:11.616Z,1013.03
2019-02-07T01:07:11.605Z,1013.02
2019-02-07T01:08:11.597Z,1013.03
2019-02-07T01:09:11.580Z,1013.02
2019-02-07T01:10:11.571Z,1013.03
2019-02-07T01:11:11.569Z,1013.01
2019-02-07T01:12:11.550Z,1013.02
2019-02-07T01:13:11.538Z,1013.02
2019-02-07T01:14:11.527Z,1013.00
2019-02-07T01:15:11.516Z,1012.97
2019-02-07T01:16:11.510Z,1012.95
2019-02-07T01:17:11.491Z,1012.89
2019-02-07T01:18:11.482Z,1012.86
2019-02-07T01:19:11.474Z,1012.84
2019-02-07T01:20:11.460Z,1012.82
2019-02-07T01:21:11.448Z,1012.81
2019-02-07T01:22:11.438Z,1012.77
2019-02-07T01:23:11.425Z,1012.70
2019-02-07T01:24:11.417Z,1012.69
2019-02-07T01:25:11.403Z,1012.66
2019-02-07T01:26:11.391Z,1012.70
2019-02-07T01:27:11.385Z,1012.66
2019-02-07T01:28:11.372Z,1012.64
2019-02-07T01:29:11.360Z,1012.62
2019-02-07T01:30:11.347Z,1012.61
2019-02-07T01:31:11.337Z,1012.59
2019-02-07T01:32:11.325Z,1012.59
2019-02-07T01:33:11.313Z,1012.61
2019-02-07T01:34:11.307Z,1012.62
2019-02-07T01:35:11.292Z,1012.61
2019-02-07T01:36:11.284Z,1012.60
2019-02-07T01:37:11.270Z,1012.56
2019-02-07T01:38:11.261Z,1012.57
2019-02-07T01:39:11.252Z,1012.62
2019-02-07T01:40:11.237Z,1012.56
2019-02-07T01:41:11.226Z,1012.51
2019-02-07T01:42:11.215Z,1012.55
2019-02-07T01:43:11.204Z,1012.49
2019-02-07T01:44:11.197Z,1012.51
2019-02-07T01:45:13.151Z,1012.53
2019-02-07T01:46:11.171Z,1012.48
2019-02-07T01:47:11.245Z,1012.47
2019-02-07T01:48:11.147Z,1012.50
2019-02-07T01:49:11.136Z,1012.46
2019-02-07T01:50:11.130Z,1012.46
2019-02-07T01:51:11.117Z,1012.48
2019-02-07T01:52:11.105Z,1012.45
2019-02-07T01:53:11.096Z,1012.47
2019-02-07T01:54:11.085Z,1012.47
2019-02-07T01:55:11.071Z,1012.43
2019-02-07T01:56:11.063Z,1012.41
2019-02-07T01:57:11.050Z,1012.36
2019-02-07T01:58:11.038Z,1012.35
2019-02-07T01:59:11.026Z,1012.39
2019-02-07T02:00:11.020Z,1012.35
2019-02-07T02:01:11.012Z,1012.36
2019-02-07T02:02:10.995Z,1012.40
2019-02-07T02:03:10.984Z,1012.44
2019-02-07T02:04:10.974Z,1012.42
2019-02-07T02:05:10.963Z,1012.39
2019-02-07T02:06:10.949Z,1012.33
2019-02-07T02:07:10.939Z,1012.29
2019-02-07T02:08:10.928Z,1012.26
2019-02-07T02:09:10.929Z,1012.19
2019-02-07T02:10:10.907Z,1012.18
2019-02-07T02:11:10.894Z,1012.17
2019-02-07T02:12:10.885Z,1012.17
2019-02-07T02:13:10.879Z,1012.22
2019-02-07T02:14:10.864Z,1012.17
2019-02-07T02:15:10.852Z,1012.13
2019-02-07T02:16:10.855Z,1012.08
2019-02-07T02:17:10.831Z,1011.99
2019-02-07T02:18:10.818Z,1012.04
2019-02-07T02:19:10.809Z,1011.97
2019-02-07T02:20:10.796Z,1011.98
2019-02-07T02:21:10.786Z,1011.97
2019-02-07T02:22:10.774Z,1011.94
2019-02-07T02:23:10.763Z,1011.96
2019-02-07T02:24:10.755Z,1011.98
2019-02-07T02:25:10.742Z,1011.95
2019-02-07T02:26:10.729Z,1011.98
2019-02-07T02:27:10.736Z,1011.98
2019-02-07T02:28:10.707Z,1011.94
2019-02-07T02:29:10.700Z,1011.95
2019-02-07T02:30:10.696Z,1011.92
2019-02-07T02:31:10.674Z,1011.87
2019-02-07T02:32:10.667Z,1011.86
2019-02-07T02:33:10.654Z,1011.83
2019-02-07T02:34:10.643Z,1011.82
2019-02-07T02:35:10.631Z,1011.83
2019-02-07T02:36:10.620Z,1011.72
2019-02-07T02:37:10.610Z,1011.79
2019-02-07T02:38:10.598Z,1011.75
2019-02-07T02:39:10.587Z,1011.71
2019-02-07T02:40:10.576Z,1011.69
2019-02-07T02:41:10.568Z,1011.73
2019-02-07T02:42:10.554Z,1011.74
2019-02-07T02:43:10.543Z,1011.69
2019-02-07T02:44:10.532Z,1011.71
2019-02-07T02:45:10.519Z,1011.67
2019-02-07T02:46:10.512Z,1011.65
2019-02-07T02:47:10.499Z,1011.64
2019-02-07T02:48:10.489Z,1011.62
2019-02-07T02:49:10.475Z,1011.66
2019-02-07T02:50:10.465Z,1011.62
2019-02-07T02:51:10.453Z,1011.60
2019-02-07T02:52:10.442Z,1011.60
2019-02-07T02:53:10.430Z,1011.59
2019-02-07T02:54:10.420Z,1011.50
2019-02-07T02:55:10.408Z,1011.51
2019-02-07T02:56:10.552Z,1011.46
2019-02-07T02:57:10.395Z,1011.48
2019-02-07T02:58:10.378Z,1011.40
2019-02-07T02:59:10.364Z,1011.42
2019-02-07T03:00:10.355Z,1011.43
2019-02-07T03:01:10.345Z,1011.39
2019-02-07T03:02:10.332Z,1011.40
2019-02-07T03:03:10.319Z,1011.35
2019-02-07T03:04:10.309Z,1011.37
2019-02-07T03:05:10.298Z,1011.37
2019-02-07T03:06:10.287Z,1011.35
2019-02-07T03:07:10.274Z,1011.37
2019-02-07T03:08:10.264Z,1011.31
2019-02-07T03:09:10.257Z,1011.40
2019-02-07T03:10:10.267Z,1011.32
2019-02-07T03:11:10.232Z,1011.35
2019-02-07T03:12:10.219Z,1011.34
2019-02-07T03:13:10.210Z,1011.32
2019-02-07T03:14:10.201Z,1011.32
2019-02-07T03:15:10.186Z,1011.31
2019-02-07T03:16:10.175Z,1011.31
2019-02-07T03:17:10.167Z,1011.31
2019-02-07T03:18:10.152Z,1011.29
2019-02-07T03:19:10.142Z,1011.36
2019-02-07T03:20:10.132Z,1011.40
2019-02-07T03:21:10.119Z,1011.37
2019-02-07T03:22:10.108Z,1011.38
2019-02-07T03:23:10.099Z,1011.36
2019-02-07T03:24:10.088Z,1011.33
2019-02-07T03:25:10.077Z,1011.33
2019-02-07T03:26:10.067Z,1011.28
2019-02-07T03:27:10.054Z,1011.26
2019-02-07T03:28:10.043Z,1011.26
2019-02-07T03:29:10.032Z,1011.24
2019-02-07T03:30:10.023Z,1011.17
2019-02-07T03:31:10.019Z,1011.19
2019-02-07T03:32:10.005Z,1011.16
2019-02-07T03:33:09.991Z,1011.15
2019-02-07T03:34:09.978Z,1011.10
2019-02-07T03:35:09.972Z,1011.04
2019-02-07T03:36:09.955Z,1011.05
2019-02-07T03:37:09.945Z,1010.97
2019-02-07T03:38:09.934Z,1010.94
2019-02-07T03:39:09.920Z,1011.00
2019-02-07T03:40:09.911Z,1010.91
2019-02-07T03:41:09.914Z,1010.93
2019-02-07T03:42:09.894Z,1010.89
2019-02-07T03:43:09.882Z,1010.92
2019-02-07T03:44:09.878Z,1010.87
2019-02-07T03:45:09.855Z,1010.87
2019-02-07T03:46:09.845Z,1010.87
2019-02-07T03:47:09.850Z,1010.88
2019-02-07T03:48:09.827Z,1010.86
2019-02-07T03:49:09.812Z,1010.91
2019-02-07T03:50:09.804Z,1010.90
2019-02-07T03:51:09.790Z,1010.90
2019-02-07T03:52:09.784Z,1010.89
2019-02-07T03:53:09.768Z,1010.83
2019-02-07T03:54:09.767Z,1010.81
2019-02-07T03:55:09.747Z,1010.80
2019-02-07T03:56:10.493Z,1010.78
2019-02-07T03:57:09.725Z,1010.77
2019-02-07T03:58:09.720Z,1010.79
2019-02-07T03:59:09.708Z,1010.76
2019-02-07T04:00:09.700Z,1010.73
2019-02-07T04:01:09.682Z,1010.74
2019-02-07T04:02:09.673Z,1010.73
2019-02-07T04:03:09.658Z,1010.70
2019-02-07T04:04:09.649Z,1010.70
2019-02-07T04:05:09.645Z,1010.72
2019-02-07T04:06:09.626Z,1010.75
2019-02-07T04:07:09.618Z,1010.75
2019-02-07T04:08:09.603Z,1010.71
2019-02-07T04:09:09.595Z,1010.73
2019-02-07T04:10:09.585Z,1010.71
2019-02-07T04:11:09.573Z,1010.73
2019-02-07T04:12:09.561Z,1010.70
2019-02-07T04:13:09.550Z,1010.77
2019-02-07T04:14:09.540Z,1010.74
2019-02-07T04:15:09.529Z,1010.69
2019-02-07T04:16:15.230Z,1010.71
2019-02-07T04:17:10.506Z,1010.68
2019-02-07T04:18:09.496Z,1010.73
2019-02-07T04:19:09.485Z,1010.69
2019-02-07T04:20:09.473Z,1010.65
2019-02-07T04:21:09.463Z,1010.69
2019-02-07T04:22:09.454Z,1010.69
2019-02-07T04:23:09.561Z,1010.67
2019-02-07T04:24:09.430Z,1010.71
2019-02-07T04:25:09.420Z,1010.65
2019-02-07T04:26:09.415Z,1010.64
2019-02-07T04:27:09.397Z,1010.63
2019-02-07T04:28:09.386Z,1010.62
2019-02-07T04:29:09.375Z,1010.59
2019-02-07T04:30:09.365Z,1010.58
2019-02-07T04:31:09.355Z,1010.56
2019-02-07T04:32:09.350Z,1010.58
2019-02-07T04:33:09.330Z,1010.55
2019-02-07T04:34:09.347Z,1010.51
2019-02-07T04:35:09.312Z,1010.51
2019-02-07T04:36:09.298Z,1010.47
2019-02-07T04:37:09.297Z,1010.48
2019-02-07T04:38:09.277Z,1010.44
2019-02-07T04:39:09.269Z,1010.46
2019-02-07T04:40:12.178Z,1010.43
2019-02-07T04:41:09.246Z,1010.39
2019-02-07T04:42:09.232Z,1010.36
2019-02-07T04:43:09.222Z,1010.36
2019-02-07T04:44:09.210Z,1010.37
2019-02-07T04:45:09.206Z,1010.34
2019-02-07T04:46:09.190Z,1010.31
2019-02-07T04:47:09.180Z,1010.30
2019-02-07T04:48:09.166Z,1010.32
2019-02-07T04:49:09.154Z,1010.24
2019-02-07T04:50:09.143Z,1010.24
2019-02-07T04:51:09.136Z,1010.22
2019-02-07T04:52:09.127Z,1010.20
2019-02-07T04:53:09.113Z,1010.20
2019-02-07T04:54:09.105Z,1010.18
2019-02-07T04:55:09.092Z,1010.18
2019-02-07T04:56:09.087Z,1010.16
2019-02-07T04:57:09.073Z,1010.13
2019-02-07T04:58:09.058Z,1010.14
2019-02-07T04:59:09.045Z,1010.12
2019-02-07T05:00:09.977Z,1010.15
2019-02-07T05:01:09.028Z,1010.11
2019-02-07T05:02:09.015Z,1010.12
2019-02-07T05:03:09.002Z,1010.12
2019-02-07T05:04:08.990Z,1010.09
2019-02-07T05:05:08.981Z,1010.06
2019-02-07T05:06:08.972Z,1010.06
2019-02-07T05:07:08.958Z,1010.01
2019-02-07T05:08:08.951Z,1010.00
2019-02-07T05:09:08.937Z,1009.98
2019-02-07T05:10:08.929Z,1009.94
2019-02-07T05:11:08.916Z,1009.90
2019-02-07T05:12:08.905Z,1009.88
2019-02-07T05:13:08.896Z,1009.87
2019-02-07T05:14:08.882Z,1009.89
2019-02-07T05:15:08.872Z,1009.84
2019-02-07T05:16:08.860Z,1009.92
2019-02-07T05:17:08.850Z,1009.93
2019-02-07T05:18:08.837Z,1009.92
2019-02-07T05:19:08.828Z,1009.93
2019-02-07T05:20:08.819Z,1009.98
2019-02-07T05:21:08.807Z,1009.94
2019-02-07T05:22:08.796Z,1009.94
2019-02-07T05:23:08.783Z,1009.94
2019-02-07T05:24:08.773Z,1009.90
2019-02-07T05:25:08.766Z,1009.84
2019-02-07T05:26:08.753Z,1009.81
2019-02-07T05:27:08.740Z,1009.83
2019-02-07T05:28:08.800Z,1009.82
2019-02-07T05:29:08.717Z,1009.80
2019-02-07T05:30:08.710Z,1009.82
2019-02-07T05:31:08.694Z,1009.78
2019-02-07T05:32:08.683Z,1009.74
2019-02-07T05:33:08.672Z,1009.77
2019-02-07T05:34:08.663Z,1009.70
2019-02-07T05:35:08.653Z,1009.76
2019-02-07T05:36:08.639Z,1009.73
2019-02-07T05:37:08.635Z,1009.68
2019-02-07T05:38:08.621Z,1009.65
2019-02-07T05:39:08.607Z,1009.62
2019-02-07T05:40:08.598Z,1009.62
2019-02-07T05:41:08.671Z,1009.61
2019-02-07T05:42:08.577Z,1009.62
2019-02-07T05:43:08.567Z,1009.64
2019-02-07T05:44:08.553Z,1009.67
2019-02-07T05:45:08.542Z,1009.67
2019-02-07T05:46:08.533Z,1009.68
2019-02-07T05:47:08.526Z,1009.62
2019-02-07T05:48:08.523Z,1009.65
2019-02-07T05:49:08.499Z,1009.63
2019-02-07T05:50:08.486Z,1009.60
2019-02-07T05:51:08.476Z,1009.60
2019-02-07T05:52:08.484Z,1009.60
2019-02-07T05:53:08.453Z,1009.61
2019-02-07T05:54:08.446Z,1009.61
2019-02-07T05:55:08.432Z,1009.59
2019-02-07T05:56:08.422Z,1009.63
2019-02-07T05:57:08.413Z,1009.63
2019-02-07T05:58:08.400Z,1009.58
2019-02-07T05:59:08.398Z,1009.56
2019-02-07T06:00:08.378Z,1009.58
2019-02-07T06:01:08.366Z,1009.55
2019-02-07T06:02:08.356Z,1009.59
2019-02-07T06:03:08.343Z,1009.52
2019-02-07T06:04:08.338Z,1009.53
2019-02-07T06:05:08.322Z,1009.51
2019-02-07T06:06:08.312Z,1009.54
2019-02-07T06:07:08.301Z,1009.54
2019-02-07T06:08:08.289Z,1009.60
2019-02-07T06:09:08.277Z,1009.59
2019-02-07T06:10:08.272Z,1009.56
2019-02-07T06:11:08.260Z,1009.60
2019-02-07T06:12:08.245Z,1009.60
2019-02-07T06:13:08.236Z,1009.55
2019-02-07T06:14:08.227Z,1009.54
2019-02-07T06:15:08.216Z,1009.49
2019-02-07T06:16:08.209Z,1009.47
2019-02-07T06:17:08.195Z,1009.43
2019-02-07T06:18:08.183Z,1009.39
2019-02-07T06:19:08.168Z,1009.39
2019-02-07T06:20:08.159Z,1009.39
2019-02-07T06:21:08.152Z,1009.43
2019-02-07T06:22:08.137Z,1009.48
2019-02-07T06:23:08.126Z,1009.50
2019-02-07T06:24:08.117Z,1009.50
2019-02-07T06:25:08.111Z,1009.46
2019-02-07T06:26:08.095Z,1009.41
2019-02-07T06:27:08.101Z,1009.46
2019-02-07T06:28:08.071Z,1009.36
2019-02-07T06:29:08.059Z,1009.35
2019-02-07T06:30:08.050Z,1009.38
2019-02-07T06:31:08.038Z,1009.36
2019-02-07T06:32:08.120Z,1009.39
2019-02-07T06:33:08.019Z,1009.41
2019-02-07T06:34:08.014Z,1009.38
2019-02-07T06:35:07.997Z,1009.36
2019-02-07T06:36:07.984Z,1009.32
2019-02-07T06:37:07.973Z,1009.30
2019-02-07T06:38:07.966Z,1009.32
2019-02-07T06:39:07.963Z,1009.28
2019-02-07T06:40:07.940Z,1009.22
2019-02-07T06:41:07.930Z,1009.21
2019-02-07T06:42:07.922Z,1009.17
2019-02-07T06:43:07.911Z,1009.16
2019-02-07T06:44:07.914Z,1009.17
2019-02-07T06:45:07.891Z,1009.17
2019-02-07T06:46:07.876Z,1009.09
2019-02-07T06:47:13.534Z,1009.06
2019-02-07T06:48:08.856Z,1009.06
2019-02-07T06:49:07.842Z,1009.04
2019-02-07T06:50:07.833Z,1009.06
2019-02-07T06:51:07.820Z,1009.07
2019-02-07T06:52:07.810Z,1009.11
2019-02-07T06:53:07.799Z,1009.11
2019-02-07T06:54:07.787Z,1009.11
2019-02-07T06:55:07.780Z,1009.08
2019-02-07T06:56:07.776Z,1009.12
2019-02-07T06:57:07.754Z,1009.07
2019-02-07T06:58:07.744Z,1009.05
2019-02-07T06:59:07.733Z,1009.01
2019-02-07T07:00:07.722Z,1009.02
2019-02-07T07:01:07.711Z,1009.05
2019-02-07T07:02:07.737Z,1009.01
2019-02-07T07:03:07.690Z,1009.02
2019-02-07T07:04:07.678Z,1008.99
2019-02-07T07:05:07.668Z,1008.96
2019-02-07T07:06:07.657Z,1008.95
2019-02-07T07:07:07.647Z,1008.91
2019-02-07T07:08:07.634Z,1008.92
2019-02-07T07:09:07.623Z,1008.98
2019-02-07T07:10:07.612Z,1008.93
2019-02-07T07:11:07.603Z,1008.89
2019-02-07T07:12:07.594Z,1008.90
2019-02-07T07:13:07.580Z,1008.91
2019-02-07T07:14:07.575Z,1008.92
2019-02-07T07:15:07.560Z,1008.89
2019-02-07T07:16:07.548Z,1008.89
2019-02-07T07:17:07.537Z,1008.88
2019-02-07T07:18:07.533Z,1008.86
2019-02-07T07:19:07.514Z,1008.89
2019-02-07T07:20:07.504Z,1008.87
2019-02-07T07:21:07.493Z,1008.83
2019-02-07T07:22:07.480Z,1008.85
2019-02-07T07:23:07.470Z,1008.83
2019-02-07T07:24:07.459Z,1008.78
2019-02-07T07:25:07.448Z,1008.81
2019-02-07T07:26:09.441Z,1008.84
2019-02-07T07:27:07.425Z,1008.85
2019-02-07T07:28:07.415Z,1008.81
2019-02-07T07:29:07.407Z,1008.81
2019-02-07T07:30:07.399Z,1008.82
2019-02-07T07:31:07.384Z,1008.86
2019-02-07T07:32:07.374Z,1008.87
2019-02-07T07:33:07.361Z,1008.84
2019-02-07T07:34:07.355Z,1008.81
2019-02-07T07:35:07.358Z,1008.77
2019-02-07T07:36:07.329Z,1008.80
2019-02-07T07:37:07.321Z,1008.78
2019-02-07T07:38:07.306Z,1008.71
2019-02-07T07:39:07.294Z,1008.73
2019-02-07T07:40:07.285Z,1008.73
2019-02-07T07:41:07.277Z,1008.74
2019-02-07T07:42:07.264Z,1008.74
2019-02-07T07:43:07.251Z,1008.81
2019-02-07T07:44:25.381Z,1008.81
2019-02-07T07:45:49.794Z,1008.79
2019-02-07T07:47:09.410Z,1008.76
2019-02-07T07:48:31.929Z,1008.81
2019-02-07T07:50:59.372Z,1008.76
2019-02-07T07:51:59.353Z,1008.77
2019-02-07T07:52:59.344Z,1008.72
2019-02-07T07:53:59.363Z,1008.73
2019-02-07T07:54:59.322Z,1008.69
2019-02-07T07:56:17.448Z,1008.67
2019-02-07T07:57:41.346Z,1008.57
2019-02-07T07:58:41.336Z,1008.59
2019-02-07T07:59:41.325Z,1008.59
2019-02-07T08:00:41.319Z,1008.56
2019-02-07T08:01:41.300Z,1008.57
2019-02-07T08:02:41.290Z,1008.55
2019-02-07T08:03:41.279Z,1008.49
2019-02-07T08:04:41.268Z,1008.51
2019-02-07T08:05:41.257Z,1008.47
2019-02-07T08:06:41.256Z,1008.39
2019-02-07T08:07:41.234Z,1008.37
2019-02-07T08:08:41.224Z,1008.36
2019-02-07T08:09:41.213Z,1008.32
2019-02-07T08:10:41.202Z,1008.36
2019-02-07T08:11:41.194Z,1008.36
2019-02-07T08:12:41.185Z,1008.40
2019-02-07T08:13:41.170Z,1008.43
2019-02-07T08:14:41.159Z,1008.40
2019-02-07T08:15:41.148Z,1008.42
2019-02-07T08:16:41.139Z,1008.38
2019-02-07T08:17:47.537Z,1008.32
2019-02-07T08:18:42.113Z,1008.35
2019-02-07T08:19:41.102Z,1008.25
2019-02-07T08:20:41.093Z,1008.26
2019-02-07T08:21:41.080Z,1008.18
2019-02-07T08:22:41.070Z,1008.19
2019-02-07T08:23:41.063Z,1008.19
2019-02-07T08:24:41.065Z,1008.15
2019-02-07T08:25:41.040Z,1008.17
2019-02-07T08:26:41.027Z,1008.15
2019-02-07T08:27:41.015Z,1008.13
2019-02-07T08:28:41.006Z,1008.10
2019-02-07T08:29:41.001Z,1008.10
2019-02-07T08:30:40.983Z,1008.14
2019-02-07T08:31:40.971Z,1008.13
2019-02-07T08:32:40.960Z,1008.07
2019-02-07T08:33:40.952Z,1008.07
2019-02-07T08:34:40.945Z,1008.00
2019-02-07T08:35:40.939Z,1007.97
2019-02-07T08:36:40.922Z,1007.96
2019-02-07T08:37:40.906Z,1007.92
2019-02-07T08:38:40.896Z,1007.97
2019-02-07T08:39:40.892Z,1007.91
2019-02-07T08:40:40.873Z,1007.85
2019-02-07T08:41:40.865Z,1007.86
2019-02-07T08:42:40.852Z,1007.85
2019-02-07T08:43:40.842Z,1007.84
2019-02-07T08:44:40.828Z,1007.87
2019-02-07T08:45:40.846Z,1007.89
2019-02-07T08:46:40.811Z,1007.85
2019-02-07T08:47:40.825Z,1007.80
2019-02-07T08:48:40.785Z,1007.86
2019-02-07T08:49:40.774Z,1007.78
2019-02-07T08:50:40.762Z,1007.81
2019-02-07T08:51:40.763Z,1007.74
2019-02-07T08:52:40.742Z,1007.72
2019-02-07T08:53:40.732Z,1007.78
2019-02-07T08:54:40.718Z,1007.68
2019-02-07T08:55:40.708Z,1007.62
2019-02-07T08:56:40.772Z,1007.64
2019-02-07T08:57:40.687Z,1007.62
2019-02-07T08:58:40.674Z,1007.64
2019-02-07T08:59:40.669Z,1007.64
2019-02-07T09:00:40.658Z,1007.57
2019-02-07T09:01:40.643Z,1007.61
2019-02-07T09:02:51.342Z,1007.60
2019-02-07T09:03:41.619Z,1007.53
2019-02-07T09:04:40.610Z,1007.59
2019-02-07T09:05:40.604Z,1007.61
2019-02-07T09:06:40.587Z,1007.59
2019-02-07T09:07:40.579Z,1007.53
2019-02-07T09:08:40.572Z,1007.55
2019-02-07T09:09:40.555Z,1007.54
2019-02-07T09:10:40.544Z,1007.48
2019-02-07T09:11:40.532Z,1007.51
2019-02-07T09:12:40.524Z,1007.51
2019-02-07T09:13:40.513Z,1007.57
2019-02-07T09:14:40.501Z,1007.49
2019-02-07T09:15:40.489Z,1007.47
2019-02-07T09:16:40.479Z,1007.50
2019-02-07T09:17:40.469Z,1007.54
2019-02-07T09:18:40.456Z,1007.51
2019-02-07T09:19:40.445Z,1007.49
2019-02-07T09:20:40.438Z,1007.41
2019-02-07T09:21:40.422Z,1007.43
2019-02-07T09:22:40.414Z,1007.39
2019-02-07T09:23:40.401Z,1007.37
2019-02-07T09:24:40.395Z,1007.37
2019-02-07T09:25:40.387Z,1007.34
2019-02-07T09:26:40.369Z,1007.30
2019-02-07T09:27:40.357Z,1007.26
2019-02-07T09:28:40.348Z,1007.28
2019-02-07T09:29:40.337Z,1007.30
2019-02-07T09:30:40.326Z,1007.28
2019-02-07T09:31:40.314Z,1007.28
2019-02-07T09:32:40.304Z,1007.26
2019-02-07T09:33:40.293Z,1007.27
2019-02-07T09:34:40.281Z,1007.24
2019-02-07T09:35:40.272Z,1007.19
2019-02-07T09:36:40.260Z,1007.27
2019-02-07T09:37:40.253Z,1007.25
2019-02-07T09:38:40.238Z,1007.23
2019-02-07T09:39:40.226Z,1007.25
2019-02-07T09:40:40.217Z,1007.24
2019-02-07T09:41:40.287Z,1007.26
2019-02-07T09:42:40.200Z,1007.25
2019-02-07T09:43:40.183Z,1007.23
2019-02-07T09:44:40.280Z,1007.25
2019-02-07T09:45:40.161Z,1007.19
2019-02-07T09:46:40.150Z,1007.19
2019-02-07T09:47:40.140Z,1007.17
2019-02-07T09:48:40.129Z,1007.15
2019-02-07T09:49:40.119Z,1007.18
2019-02-07T09:50:40.107Z,1007.13
2019-02-07T09:51:40.096Z,1007.15
2019-02-07T09:52:40.085Z,1007.14
2019-02-07T09:53:40.074Z,1007.20
2019-02-07T09:54:40.068Z,1007.20
2019-02-07T09:55:40.053Z,1007.14
2019-02-07T09:56:40.146Z,1007.16
2019-02-07T09:57:40.031Z,1007.14
2019-02-07T09:58:40.020Z,1007.10
2019-02-07T09:59:40.021Z,1007.05
2019-02-07T10:00:39.997Z,1007.07
2019-02-07T10:01:39.990Z,1007.13
2019-02-07T10:02:39.976Z,1007.15
2019-02-07T10:03:39.965Z,1007.19
2019-02-07T10:04:39.954Z,1007.23
2019-02-07T10:05:39.941Z,1007.16
2019-02-07T10:06:39.931Z,1007.15
2019-02-07T10:07:39.921Z,1007.12
2019-02-07T10:08:39.909Z,1007.13
2019-02-07T10:09:39.897Z,1007.24
2019-02-07T10:10:39.888Z,1007.12
2019-02-07T10:11:39.881Z,1007.10
2019-02-07T10:12:39.865Z,1007.09
2019-02-07T10:13:39.853Z,1007.08
2019-02-07T10:14:39.843Z,1007.09
2019-02-07T10:15:39.833Z,1007.09
2019-02-07T10:16:39.827Z,1007.05
2019-02-07T10:17:39.811Z,1007.05
2019-02-07T10:18:39.798Z,1007.00
2019-02-07T10:19:39.789Z,1006.97
2019-02-07T10:20:39.776Z,1006.88
2019-02-07T10:21:39.767Z,1006.79
2019-02-07T10:22:39.755Z,1006.81
2019-02-07T10:23:39.743Z,1006.80
2019-02-07T10:24:39.734Z,1006.86
2019-02-07T10:25:39.722Z,1006.87
2019-02-07T10:26:39.718Z,1006.83
2019-02-07T10:27:39.701Z,1006.86
2019-02-07T10:28:39.703Z,1006.81
2019-02-07T10:29:39.679Z,1006.82
2019-02-07T10:30:39.667Z,1006.84
2019-02-07T10:31:39.663Z,1006.86
2019-02-07T10:32:39.645Z,1006.80
2019-02-07T10:33:39.634Z,1006.77
2019-02-07T10:34:39.626Z,1006.80
2019-02-07T10:35:39.614Z,1006.73
2019-02-07T10:36:39.602Z,1006.66
2019-02-07T10:37:39.592Z,1006.64
2019-02-07T10:38:39.579Z,1006.61
2019-02-07T10:39:39.568Z,1006.55
2019-02-07T10:40:39.558Z,1006.54
2019-02-07T10:41:39.552Z,1006.53
2019-02-07T10:42:39.535Z,1006.52
2019-02-07T10:43:39.526Z,1006.52
2019-02-07T10:44:39.515Z,1006.36
2019-02-07T10:45:39.508Z,1006.42
2019-02-07T10:46:39.535Z,1006.39
2019-02-07T10:47:39.503Z,1006.34
2019-02-07T10:48:44.480Z,1006.38
2019-02-07T10:49:40.461Z,1006.38
2019-02-07T10:50:39.448Z,1006.38
2019-02-07T10:51:39.438Z,1006.29
2019-02-07T10:52:40.119Z,1006.38
2019-02-07T10:53:39.413Z,1006.42
2019-02-07T10:54:39.403Z,1006.40
2019-02-07T10:55:39.391Z,1006.43
2019-02-07T10:56:39.382Z,1006.42
2019-02-07T10:57:39.370Z,1006.43
2019-02-07T10:58:39.359Z,1006.40
2019-02-07T10:59:39.349Z,1006.27
2019-02-07T11:00:39.337Z,1006.17
2019-02-07T11:01:39.328Z,1006.20
2019-02-07T11:02:39.317Z,1006.23
2019-02-07T11:03:39.309Z,1006.21
2019-02-07T11:04:39.295Z,1006.22
2019-02-07T11:05:39.283Z,1006.21
2019-02-07T11:06:39.272Z,1006.23
2019-02-07T11:07:39.262Z,1006.19
2019-02-07T11:08:39.250Z,1006.24
2019-02-07T11:09:39.239Z,1006.15
2019-02-07T11:10:39.228Z,1006.17
2019-02-07T11:11:39.215Z,1006.10
2019-02-07T11:12:39.211Z,1006.09
2019-02-07T11:13:39.198Z,1006.07
2019-02-07T11:14:39.184Z,1006.01
2019-02-07T11:15:39.173Z,1005.98
2019-02-07T11:16:39.161Z,1006.00
2019-02-07T11:17:39.149Z,1005.95
2019-02-07T11:18:39.142Z,1006.00
2019-02-07T11:19:39.129Z,1005.96
2019-02-07T11:20:39.116Z,1005.92
2019-02-07T11:21:39.107Z,1005.94
2019-02-07T11:22:39.187Z,1005.92
2019-02-07T11:23:39.085Z,1005.86
2019-02-07T11:24:39.072Z,1005.84
2019-02-07T11:25:39.062Z,1005.75
2019-02-07T11:26:39.124Z,1005.77
2019-02-07T11:27:39.042Z,1005.83
2019-02-07T11:28:39.029Z,1005.85
2019-02-07T11:29:39.018Z,1005.81
2019-02-07T11:30:39.008Z,1005.83
2019-02-07T11:31:38.995Z,1005.73
2019-02-07T11:32:38.989Z,1005.72
2019-02-07T11:33:38.975Z,1005.73
2019-02-07T11:34:38.969Z,1005.73
2019-02-07T11:35:38.956Z,1005.69
2019-02-07T11:36:38.940Z,1005.65
2019-02-07T11:37:38.931Z,1005.67
2019-02-07T11:38:38.919Z,1005.64
2019-02-07T11:39:38.907Z,1005.61
2019-02-07T11:40:41.209Z,1005.62
2019-02-07T11:41:38.886Z,1005.60
2019-02-07T11:42:38.877Z,1005.59
2019-02-07T11:43:38.863Z,1005.55
2019-02-07T11:44:38.852Z,1005.51
2019-02-07T11:45:38.841Z,1005.45
2019-02-07T11:46:38.831Z,1005.45
2019-02-07T11:47:38.822Z,1005.43
2019-02-07T11:48:38.808Z,1005.35
2019-02-07T11:49:38.796Z,1005.39
2019-02-07T11:50:38.791Z,1005.37
2019-02-07T11:51:38.775Z,1005.36
2019-02-07T11:52:38.771Z,1005.38
2019-02-07T11:53:38.818Z,1005.41
2019-02-07T11:54:38.744Z,1005.37
2019-02-07T11:55:38.731Z,1005.37
2019-02-07T11:56:38.720Z,1005.36
2019-02-07T11:57:38.713Z,1005.30
2019-02-07T11:58:38.698Z,1005.25
2019-02-07T11:59:38.688Z,1005.30
2019-02-07T12:00:38.675Z,1005.29
2019-02-07T12:01:38.665Z,1005.30
2019-02-07T12:02:38.652Z,1005.35
2019-02-07T12:03:38.644Z,1005.30
2019-02-07T12:04:38.640Z,1005.26
2019-02-07T12:05:38.626Z,1005.22
2019-02-07T12:06:38.611Z,1005.18
2019-02-07T12:07:38.599Z,1005.17
2019-02-07T12:08:38.588Z,1005.21
2019-02-07T12:09:38.576Z,1005.17
2019-02-07T12:10:38.566Z,1005.21
2019-02-07T12:11:38.621Z,1005.18
2019-02-07T12:12:38.546Z,1005.13
2019-02-07T12:13:38.531Z,1005.13
2019-02-07T12:14:38.521Z,1005.16
2019-02-07T12:15:38.513Z,1005.08
2019-02-07T12:16:38.501Z,1005.11
2019-02-07T12:17:38.492Z,1005.12
2019-02-07T12:18:38.479Z,1005.19
2019-02-07T12:19:38.466Z,1005.22
2019-02-07T12:20:38.457Z,1005.32
2019-02-07T12:21:38.447Z,1005.21
2019-02-07T12:22:38.437Z,1005.19